sensor_id;sensor_type;location;lat;lon;timestamp;temperature;humidity
46085;DHT22;31823;47.032;8.310;2023-03-25T00:02:14;7.00;99.90
46085;DHT22;31823;47.032;8.310;2023-03-25T00:04:40;7.10;99.90
46085;DHT22;31823;47.032;8.310;2023-03-25T00:07:05;7.10;99.90
46085;DHT22;31823;47.032;8.310;2023-03-25T00:09:31;7.60;99.90
46085;DHT22;31823;47.032;8.310;2023-03-25T00:11:57;8.10;99.90
46085;DHT22;31823;47.032;8.310;2023-03-25T00:14:22;8.30;99.90
46085;DHT22;31823;47.032;8.310;2023-03-25T00:16:49;8.30;99.90
46085;DHT22;31823;47.032;8.310;2023-03-25T00:19:18;8.30;99.90
46085;DHT22;31823;47.032;8.310;2023-03-25T00:21:48;8.30;99.90
46085;DHT22;31823;47.032;8.310;2023-03-25T00:24:17;8.30;99.90
46085;DHT22;31823;47.032;8.310;2023-03-25T00:26:46;8.30;99.90
46085;DHT22;31823;47.032;8.310;2023-03-25T00:29:13;8.40;99.90
46085;DHT22;31823;47.032;8.310;2023-03-25T00:31:40;8.40;99.90
46085;DHT22;31823;47.032;8.310;2023-03-25T00:34:06;8.30;99.90
46085;DHT22;31823;47.032;8.310;2023-03-25T00:36:33;8.30;99.90
46085;DHT22;31823;47.032;8.310;2023-03-25T00:39:03;8.30;99.90
46085;DHT22;31823;47.032;8.310;2023-03-25T00:41:29;8.40;99.90
46085;DHT22;31823;47.032;8.310;2023-03-25T00:43:59;8.40;99.90
46085;DHT22;31823;47.032;8.310;2023-03-25T00:46:26;8.30;99.90
46085;DHT22;31823;47.032;8.310;2023-03-25T00:48:53;8.40;99.90
46085;DHT22;31823;47.032;8.310;2023-03-25T00:51:20;8.50;99.90
46085;DHT22;31823;47.032;8.310;2023-03-25T00:53:49;8.50;99.90
46085;DHT22;31823;47.032;8.310;2023-03-25T00:56:16;8.60;99.90
46085;DHT22;31823;47.032;8.310;2023-03-25T00:58:42;8.60;99.90
46085;DHT22;31823;47.032;8.310;2023-03-25T01:01:13;8.60;99.90
46085;DHT22;31823;47.032;8.310;2023-03-25T01:03:40;8.50;99.90
46085;DHT22;31823;47.032;8.310;2023-03-25T01:06:10;8.50;99.90
46085;DHT22;31823;47.032;8.310;2023-03-25T01:08:37;8.40;99.90
46085;DHT22;31823;47.032;8.310;2023-03-25T01:11:03;8.30;99.90
46085;DHT22;31823;47.032;8.310;2023-03-25T01:13:29;8.30;99.90
46085;DHT22;31823;47.032;8.310;2023-03-25T01:15:54;8.20;99.90
46085;DHT22;31823;47.032;8.310;2023-03-25T01:18:20;8.20;99.90
46085;DHT22;31823;47.032;8.310;2023-03-25T01:20:46;8.20;99.90
46085;DHT22;31823;47.032;8.310;2023-03-25T01:23:11;8.20;99.90
46085;DHT22;31823;47.032;8.310;2023-03-25T01:25:37;8.20;99.90
46085;DHT22;31823;47.032;8.310;2023-03-25T01:28:03;8.10;99.90
46085;DHT22;31823;47.032;8.310;2023-03-25T01:30:30;8.10;99.90
46085;DHT22;31823;47.032;8.310;2023-03-25T01:32:56;8.10;99.90
46085;DHT22;31823;47.032;8.310;2023-03-25T01:35:21;8.00;99.90
46085;DHT22;31823;47.032;8.310;2023-03-25T01:37:47;7.90;99.90
46085;DHT22;31823;47.032;8.310;2023-03-25T01:40:18;7.80;99.90
46085;DHT22;31823;47.032;8.310;2023-03-25T01:42:45;7.60;99.90
46085;DHT22;31823;47.032;8.310;2023-03-25T01:45:31;7.50;99.90
46085;DHT22;31823;47.032;8.310;2023-03-25T01:48:10;7.40;99.90
46085;DHT22;31823;47.032;8.310;2023-03-25T01:50:40;7.40;99.90
46085;DHT22;31823;47.032;8.310;2023-03-25T01:53:08;7.30;99.90
46085;DHT22;31823;47.032;8.310;2023-03-25T01:55:34;7.60;99.90
46085;DHT22;31823;47.032;8.310;2023-03-25T01:58:05;7.50;99.90
46085;DHT22;31823;47.032;8.310;2023-03-25T02:00:32;7.30;99.90
46085;DHT22;31823;47.032;8.310;2023-03-25T02:02:59;7.60;99.90
46085;DHT22;31823;47.032;8.310;2023-03-25T02:05:40;7.10;99.90
46085;DHT22;31823;47.032;8.310;2023-03-25T02:08:07;7.00;99.90
46085;DHT22;31823;47.032;8.310;2023-03-25T02:10:36;8.60;99.90
46085;DHT22;31823;47.032;8.310;2023-03-25T02:13:03;8.30;99.90
46085;DHT22;31823;47.032;8.310;2023-03-25T02:15:41;8.50;99.90
46085;DHT22;31823;47.032;8.310;2023-03-25T02:18:19;8.60;99.90
46085;DHT22;31823;47.032;8.310;2023-03-25T02:21:12;8.80;99.90
46085;DHT22;31823;47.032;8.310;2023-03-25T02:23:50;8.90;99.90
46085;DHT22;31823;47.032;8.310;2023-03-25T02:29:02;8.70;99.90
46085;DHT22;31823;47.032;8.310;2023-03-25T02:42:30;6.80;99.90
46085;DHT22;31823;47.032;8.310;2023-03-25T02:45:01;6.40;99.90
46085;DHT22;31823;47.032;8.310;2023-03-25T02:47:35;6.40;99.90
46085;DHT22;31823;47.032;8.310;2023-03-25T02:50:11;6.30;99.90
46085;DHT22;31823;47.032;8.310;2023-03-25T02:52:44;6.40;99.90
46085;DHT22;31823;47.032;8.310;2023-03-25T02:55:13;6.20;99.90
46085;DHT22;31823;47.032;8.310;2023-03-25T02:57:44;6.10;99.90
46085;DHT22;31823;47.032;8.310;2023-03-25T03:00:11;6.20;99.90
46085;DHT22;31823;47.032;8.310;2023-03-25T03:02:43;6.30;99.90
46085;DHT22;31823;47.032;8.310;2023-03-25T03:19:07;6.30;99.90
46085;DHT22;31823;47.032;8.310;2023-03-25T03:21:54;6.40;99.90
46085;DHT22;31823;47.032;8.310;2023-03-25T03:24:37;6.70;99.90
46085;DHT22;31823;47.032;8.310;2023-03-25T03:29:38;6.60;99.90
46085;DHT22;31823;47.032;8.310;2023-03-25T03:32:08;6.40;99.90
46085;DHT22;31823;47.032;8.310;2023-03-25T03:37:46;6.10;99.90
46085;DHT22;31823;47.032;8.310;2023-03-25T03:40:17;6.30;99.90
46085;DHT22;31823;47.032;8.310;2023-03-25T03:43:22;6.30;99.90
46085;DHT22;31823;47.032;8.310;2023-03-25T03:45:52;6.70;99.90
46085;DHT22;31823;47.032;8.310;2023-03-25T03:51:42;7.00;99.90
46085;DHT22;31823;47.032;8.310;2023-03-25T03:56:49;7.30;99.90
46085;DHT22;31823;47.032;8.310;2023-03-25T03:59:30;7.70;99.90
46085;DHT22;31823;47.032;8.310;2023-03-25T04:02:03;7.80;99.90
46085;DHT22;31823;47.032;8.310;2023-03-25T04:04:31;7.80;99.90
46085;DHT22;31823;47.032;8.310;2023-03-25T04:07:17;7.60;99.90
46085;DHT22;31823;47.032;8.310;2023-03-25T04:12:25;6.70;99.90
46085;DHT22;31823;47.032;8.310;2023-03-25T04:14:53;6.30;99.90
46085;DHT22;31823;47.032;8.310;2023-03-25T04:17:19;6.00;99.90
46085;DHT22;31823;47.032;8.310;2023-03-25T04:19:45;6.00;99.90
46085;DHT22;31823;47.032;8.310;2023-03-25T04:22:15;5.90;99.90
46085;DHT22;31823;47.032;8.310;2023-03-25T04:24:43;5.60;99.90
46085;DHT22;31823;47.032;8.310;2023-03-25T04:27:09;5.60;99.90
46085;DHT22;31823;47.032;8.310;2023-03-25T04:29:39;5.60;99.90
46085;DHT22;31823;47.032;8.310;2023-03-25T04:32:05;5.40;99.90
46085;DHT22;31823;47.032;8.310;2023-03-25T04:34:33;5.50;99.90
46085;DHT22;31823;47.032;8.310;2023-03-25T04:36:58;5.50;99.90
46085;DHT22;31823;47.032;8.310;2023-03-25T04:39:24;5.40;99.90
46085;DHT22;31823;47.032;8.310;2023-03-25T04:41:50;5.40;99.90
46085;DHT22;31823;47.032;8.310;2023-03-25T04:44:18;5.40;99.90
46085;DHT22;31823;47.032;8.310;2023-03-25T04:46:45;5.60;99.90
46085;DHT22;31823;47.032;8.310;2023-03-25T04:49:22;5.60;99.90
46085;DHT22;31823;47.032;8.310;2023-03-25T04:51:51;5.70;99.90
46085;DHT22;31823;47.032;8.310;2023-03-25T04:54:19;5.80;99.90
46085;DHT22;31823;47.032;8.310;2023-03-25T04:56:46;5.50;99.90
46085;DHT22;31823;47.032;8.310;2023-03-25T04:59:14;5.60;99.90
46085;DHT22;31823;47.032;8.310;2023-03-25T05:01:40;5.50;99.90
46085;DHT22;31823;47.032;8.310;2023-03-25T05:04:07;5.40;99.90
46085;DHT22;31823;47.032;8.310;2023-03-25T05:06:37;5.40;99.90
46085;DHT22;31823;47.032;8.310;2023-03-25T05:09:05;5.40;99.90
46085;DHT22;31823;47.032;8.310;2023-03-25T05:11:33;5.20;99.90
46085;DHT22;31823;47.032;8.310;2023-03-25T05:13:59;5.20;99.90
46085;DHT22;31823;47.032;8.310;2023-03-25T05:16:25;5.00;99.90
46085;DHT22;31823;47.032;8.310;2023-03-25T05:18:51;4.90;99.90
46085;DHT22;31823;47.032;8.310;2023-03-25T05:21:16;4.80;99.90
46085;DHT22;31823;47.032;8.310;2023-03-25T05:23:43;4.80;99.90
46085;DHT22;31823;47.032;8.310;2023-03-25T05:26:09;4.80;99.90
46085;DHT22;31823;47.032;8.310;2023-03-25T05:28:37;4.90;99.90
46085;DHT22;31823;47.032;8.310;2023-03-25T05:31:03;4.70;99.90
46085;DHT22;31823;47.032;8.310;2023-03-25T05:33:34;4.90;99.90
46085;DHT22;31823;47.032;8.310;2023-03-25T05:36:02;4.90;99.90
46085;DHT22;31823;47.032;8.310;2023-03-25T05:38:28;4.80;99.90
46085;DHT22;31823;47.032;8.310;2023-03-25T05:40:53;4.90;99.90
46085;DHT22;31823;47.032;8.310;2023-03-25T05:43:19;4.90;99.90
46085;DHT22;31823;47.032;8.310;2023-03-25T05:45:48;5.00;99.90
46085;DHT22;31823;47.032;8.310;2023-03-25T05:48:14;5.00;99.90
46085;DHT22;31823;47.032;8.310;2023-03-25T05:50:39;4.90;99.90
46085;DHT22;31823;47.032;8.310;2023-03-25T05:53:11;4.70;99.90
46085;DHT22;31823;47.032;8.310;2023-03-25T05:55:37;4.70;99.90
46085;DHT22;31823;47.032;8.310;2023-03-25T05:58:03;4.90;99.90
46085;DHT22;31823;47.032;8.310;2023-03-25T06:00:29;5.00;99.90
46085;DHT22;31823;47.032;8.310;2023-03-25T06:02:55;5.10;99.90
46085;DHT22;31823;47.032;8.310;2023-03-25T06:05:20;5.20;99.90
46085;DHT22;31823;47.032;8.310;2023-03-25T06:07:49;5.10;99.90
46085;DHT22;31823;47.032;8.310;2023-03-25T06:10:15;4.90;99.90
46085;DHT22;31823;47.032;8.310;2023-03-25T06:12:42;5.00;99.90
46085;DHT22;31823;47.032;8.310;2023-03-25T06:15:10;4.90;99.90
46085;DHT22;31823;47.032;8.310;2023-03-25T06:17:36;5.10;99.90
46085;DHT22;31823;47.032;8.310;2023-03-25T06:20:06;5.10;99.90
46085;DHT22;31823;47.032;8.310;2023-03-25T06:22:37;5.00;99.90
46085;DHT22;31823;47.032;8.310;2023-03-25T06:25:04;4.90;99.90
46085;DHT22;31823;47.032;8.310;2023-03-25T06:27:30;4.90;99.90
46085;DHT22;31823;47.032;8.310;2023-03-25T06:30:02;4.90;99.90
46085;DHT22;31823;47.032;8.310;2023-03-25T06:32:27;4.90;99.90
46085;DHT22;31823;47.032;8.310;2023-03-25T06:34:53;5.00;99.90
46085;DHT22;31823;47.032;8.310;2023-03-25T06:37:18;5.10;99.90
46085;DHT22;31823;47.032;8.310;2023-03-25T06:39:46;5.20;99.90
46085;DHT22;31823;47.032;8.310;2023-03-25T06:42:14;5.50;99.90
46085;DHT22;31823;47.032;8.310;2023-03-25T06:44:40;5.60;99.90
46085;DHT22;31823;47.032;8.310;2023-03-25T06:47:05;5.60;99.90
46085;DHT22;31823;47.032;8.310;2023-03-25T06:49:31;5.50;99.90
46085;DHT22;31823;47.032;8.310;2023-03-25T06:51:57;5.50;99.90
46085;DHT22;31823;47.032;8.310;2023-03-25T06:54:23;5.40;99.90
46085;DHT22;31823;47.032;8.310;2023-03-25T06:56:48;5.30;99.90
46085;DHT22;31823;47.032;8.310;2023-03-25T06:59:14;5.40;99.90
46085;DHT22;31823;47.032;8.310;2023-03-25T07:01:40;5.50;99.90
46085;DHT22;31823;47.032;8.310;2023-03-25T07:04:07;5.70;99.90
46085;DHT22;31823;47.032;8.310;2023-03-25T07:06:32;6.00;99.90
46085;DHT22;31823;47.032;8.310;2023-03-25T07:08:58;6.10;99.90
46085;DHT22;31823;47.032;8.310;2023-03-25T07:11:29;6.00;99.90
46085;DHT22;31823;47.032;8.310;2023-03-25T07:13:55;5.90;99.90
46085;DHT22;31823;47.032;8.310;2023-03-25T07:16:21;6.00;99.90
46085;DHT22;31823;47.032;8.310;2023-03-25T07:18:47;6.10;99.90
46085;DHT22;31823;47.032;8.310;2023-03-25T07:21:15;6.10;99.90
46085;DHT22;31823;47.032;8.310;2023-03-25T07:23:41;6.30;99.90
46085;DHT22;31823;47.032;8.310;2023-03-25T07:26:06;6.40;99.90
46085;DHT22;31823;47.032;8.310;2023-03-25T07:28:32;6.50;99.90
46085;DHT22;31823;47.032;8.310;2023-03-25T07:30:57;6.40;99.90
46085;DHT22;31823;47.032;8.310;2023-03-25T07:33:23;6.50;99.90
46085;DHT22;31823;47.032;8.310;2023-03-25T07:35:48;6.60;99.90
46085;DHT22;31823;47.032;8.310;2023-03-25T07:38:14;6.60;99.90
46085;DHT22;31823;47.032;8.310;2023-03-25T07:40:40;6.70;99.90
46085;DHT22;31823;47.032;8.310;2023-03-25T07:43:06;6.80;99.90
46085;DHT22;31823;47.032;8.310;2023-03-25T07:45:31;6.70;99.90
46085;DHT22;31823;47.032;8.310;2023-03-25T07:48:00;6.90;99.90
46085;DHT22;31823;47.032;8.310;2023-03-25T07:50:25;7.20;99.90
46085;DHT22;31823;47.032;8.310;2023-03-25T07:52:51;7.20;99.90
46085;DHT22;31823;47.032;8.310;2023-03-25T07:55:17;7.20;99.90
46085;DHT22;31823;47.032;8.310;2023-03-25T07:57:43;7.10;99.90
46085;DHT22;31823;47.032;8.310;2023-03-25T08:00:09;7.30;99.90
46085;DHT22;31823;47.032;8.310;2023-03-25T08:02:35;7.40;99.90
46085;DHT22;31823;47.032;8.310;2023-03-25T08:05:01;7.40;99.90
46085;DHT22;31823;47.032;8.310;2023-03-25T08:07:27;7.70;99.90
46085;DHT22;31823;47.032;8.310;2023-03-25T08:09:53;7.80;99.90
46085;DHT22;31823;47.032;8.310;2023-03-25T08:12:19;8.00;99.90
46085;DHT22;31823;47.032;8.310;2023-03-25T08:14:45;8.10;99.90
46085;DHT22;31823;47.032;8.310;2023-03-25T08:17:11;7.90;99.90
46085;DHT22;31823;47.032;8.310;2023-03-25T08:19:36;7.80;99.90
46085;DHT22;31823;47.032;8.310;2023-03-25T08:22:02;7.70;99.90
46085;DHT22;31823;47.032;8.310;2023-03-25T08:24:28;7.60;99.90
46085;DHT22;31823;47.032;8.310;2023-03-25T08:26:55;7.60;99.90
46085;DHT22;31823;47.032;8.310;2023-03-25T08:29:20;7.70;99.90
46085;DHT22;31823;47.032;8.310;2023-03-25T08:31:46;7.90;99.90
46085;DHT22;31823;47.032;8.310;2023-03-25T08:34:17;8.10;99.90
46085;DHT22;31823;47.032;8.310;2023-03-25T08:36:43;8.50;99.90
46085;DHT22;31823;47.032;8.310;2023-03-25T08:39:09;8.60;99.90
46085;DHT22;31823;47.032;8.310;2023-03-25T08:41:37;8.70;99.90
46085;DHT22;31823;47.032;8.310;2023-03-25T08:44:06;8.70;99.90
46085;DHT22;31823;47.032;8.310;2023-03-25T08:46:31;8.90;99.90
46085;DHT22;31823;47.032;8.310;2023-03-25T08:48:57;9.50;99.90
46085;DHT22;31823;47.032;8.310;2023-03-25T08:51:23;9.40;99.90
46085;DHT22;31823;47.032;8.310;2023-03-25T08:53:48;9.30;99.90
46085;DHT22;31823;47.032;8.310;2023-03-25T08:56:14;9.60;99.90
46085;DHT22;31823;47.032;8.310;2023-03-25T08:58:40;9.40;99.90
46085;DHT22;31823;47.032;8.310;2023-03-25T09:01:06;9.20;99.90
46085;DHT22;31823;47.032;8.310;2023-03-25T09:03:32;9.00;99.90
46085;DHT22;31823;47.032;8.310;2023-03-25T09:06:01;9.10;99.90
46085;DHT22;31823;47.032;8.310;2023-03-25T09:08:27;9.00;99.90
46085;DHT22;31823;47.032;8.310;2023-03-25T09:10:54;8.90;99.90
46085;DHT22;31823;47.032;8.310;2023-03-25T09:13:20;8.60;99.90
46085;DHT22;31823;47.032;8.310;2023-03-25T09:15:46;8.70;99.90
46085;DHT22;31823;47.032;8.310;2023-03-25T09:18:11;8.90;99.90
46085;DHT22;31823;47.032;8.310;2023-03-25T09:20:37;9.00;99.90
46085;DHT22;31823;47.032;8.310;2023-03-25T09:23:03;8.80;99.90
46085;DHT22;31823;47.032;8.310;2023-03-25T09:25:28;8.60;99.90
46085;DHT22;31823;47.032;8.310;2023-03-25T09:27:54;8.60;99.90
46085;DHT22;31823;47.032;8.310;2023-03-25T09:30:20;8.80;99.90
46085;DHT22;31823;47.032;8.310;2023-03-25T09:32:45;8.90;99.90
46085;DHT22;31823;47.032;8.310;2023-03-25T09:35:11;9.10;99.90
46085;DHT22;31823;47.032;8.310;2023-03-25T09:37:36;9.00;99.90
46085;DHT22;31823;47.032;8.310;2023-03-25T09:40:03;9.10;99.90
46085;DHT22;31823;47.032;8.310;2023-03-25T09:45:31;9.80;99.90
46085;DHT22;31823;47.032;8.310;2023-03-25T09:48:33;9.60;99.90
46085;DHT22;31823;47.032;8.310;2023-03-25T09:51:24;9.60;99.90
46085;DHT22;31823;47.032;8.310;2023-03-25T09:53:59;9.60;99.90
46085;DHT22;31823;47.032;8.310;2023-03-25T09:56:28;9.90;99.90
46085;DHT22;31823;47.032;8.310;2023-03-25T09:59:31;9.70;99.90
46085;DHT22;31823;47.032;8.310;2023-03-25T10:10:51;9.90;99.90
46085;DHT22;31823;47.032;8.310;2023-03-25T10:19:27;10.10;99.90
46085;DHT22;31823;47.032;8.310;2023-03-25T10:22:05;10.20;99.90
46085;DHT22;31823;47.032;8.310;2023-03-25T10:24:34;10.20;99.90
46085;DHT22;31823;47.032;8.310;2023-03-25T10:27:14;10.70;99.90
46085;DHT22;31823;47.032;8.310;2023-03-25T10:33:01;10.70;99.90
46085;DHT22;31823;47.032;8.310;2023-03-25T10:35:31;10.80;99.90
46085;DHT22;31823;47.032;8.310;2023-03-25T10:38:05;10.60;99.90
46085;DHT22;31823;47.032;8.310;2023-03-25T10:40:35;10.50;99.90
46085;DHT22;31823;47.032;8.310;2023-03-25T10:45:55;10.90;99.90
46085;DHT22;31823;47.032;8.310;2023-03-25T10:48:27;10.90;99.90
46085;DHT22;31823;47.032;8.310;2023-03-25T10:51:21;10.90;99.90
46085;DHT22;31823;47.032;8.310;2023-03-25T10:53:51;11.30;99.90
46085;DHT22;31823;47.032;8.310;2023-03-25T10:56:26;11.40;99.90
46085;DHT22;31823;47.032;8.310;2023-03-25T10:58:55;11.00;99.90
46085;DHT22;31823;47.032;8.310;2023-03-25T11:01:34;11.00;99.90
46085;DHT22;31823;47.032;8.310;2023-03-25T11:04:04;11.10;99.90
46085;DHT22;31823;47.032;8.310;2023-03-25T11:06:35;11.40;99.90
46085;DHT22;31823;47.032;8.310;2023-03-25T11:09:24;11.10;99.90
46085;DHT22;31823;47.032;8.310;2023-03-25T11:11:51;11.40;99.90
46085;DHT22;31823;47.032;8.310;2023-03-25T11:14:22;11.60;99.90
46085;DHT22;31823;47.032;8.310;2023-03-25T11:16:59;12.00;99.90
46085;DHT22;31823;47.032;8.310;2023-03-25T11:21:57;11.80;99.90
46085;DHT22;31823;47.032;8.310;2023-03-25T11:24:30;12.00;99.90
46085;DHT22;31823;47.032;8.310;2023-03-25T11:26:56;12.20;99.90
46085;DHT22;31823;47.032;8.310;2023-03-25T11:29:25;12.00;99.50
46085;DHT22;31823;47.032;8.310;2023-03-25T11:31:57;12.00;99.40
46085;DHT22;31823;47.032;8.310;2023-03-25T11:34:28;11.90;99.20
46085;DHT22;31823;47.032;8.310;2023-03-25T11:39:35;11.30;99.40
46085;DHT22;31823;47.032;8.310;2023-03-25T11:42:29;11.30;99.90
46085;DHT22;31823;47.032;8.310;2023-03-25T11:44:58;11.00;99.90
46085;DHT22;31823;47.032;8.310;2023-03-25T11:47:36;11.00;99.90
46085;DHT22;31823;47.032;8.310;2023-03-25T11:50:04;11.20;99.90
46085;DHT22;31823;47.032;8.310;2023-03-25T11:52:40;10.90;99.90
46085;DHT22;31823;47.032;8.310;2023-03-25T11:57:41;10.70;99.90
46085;DHT22;31823;47.032;8.310;2023-03-25T12:00:30;10.50;99.90
46085;DHT22;31823;47.032;8.310;2023-03-25T12:05:36;10.70;99.90
46085;DHT22;31823;47.032;8.310;2023-03-25T12:08:14;10.50;99.90
46085;DHT22;31823;47.032;8.310;2023-03-25T12:10:53;10.10;99.90
46085;DHT22;31823;47.032;8.310;2023-03-25T12:15:54;10.10;99.90
46085;DHT22;31823;47.032;8.310;2023-03-25T12:18:48;10.20;99.90
46085;DHT22;31823;47.032;8.310;2023-03-25T12:35:03;9.40;99.90
46085;DHT22;31823;47.032;8.310;2023-03-25T12:43:27;8.80;99.90
46085;DHT22;31823;47.032;8.310;2023-03-25T12:46:28;8.60;99.90
46085;DHT22;31823;47.032;8.310;2023-03-25T12:49:07;8.50;99.90
46085;DHT22;31823;47.032;8.310;2023-03-25T13:00:01;8.30;99.90
46085;DHT22;31823;47.032;8.310;2023-03-25T13:05:17;8.30;99.90
46085;DHT22;31823;47.032;8.310;2023-03-25T13:07:46;8.50;99.90
46085;DHT22;31823;47.032;8.310;2023-03-25T13:12:52;10.00;99.90
46085;DHT22;31823;47.032;8.310;2023-03-25T13:15:33;10.50;99.90
46085;DHT22;31823;47.032;8.310;2023-03-25T13:20:40;11.60;99.90
46085;DHT22;31823;47.032;8.310;2023-03-25T13:23:10;12.70;99.90
46085;DHT22;31823;47.032;8.310;2023-03-25T13:25:59;12.80;99.90
46085;DHT22;31823;47.032;8.310;2023-03-25T13:28:34;13.10;99.90
46085;DHT22;31823;47.032;8.310;2023-03-25T13:31:08;13.30;99.90
46085;DHT22;31823;47.032;8.310;2023-03-25T13:33:40;13.50;99.90
46085;DHT22;31823;47.032;8.310;2023-03-25T13:36:47;13.60;99.90
46085;DHT22;31823;47.032;8.310;2023-03-25T13:39:18;13.10;99.90
46085;DHT22;31823;47.032;8.310;2023-03-25T13:41:55;13.00;99.90
46085;DHT22;31823;47.032;8.310;2023-03-25T13:44:28;13.20;99.90
46085;DHT22;31823;47.032;8.310;2023-03-25T13:49:46;14.40;99.90
46085;DHT22;31823;47.032;8.310;2023-03-25T13:52:13;14.30;99.90
46085;DHT22;31823;47.032;8.310;2023-03-25T13:54:48;15.20;99.90
46085;DHT22;31823;47.032;8.310;2023-03-25T14:03:30;15.20;98.70
46085;DHT22;31823;47.032;8.310;2023-03-25T14:05:48;15.50;98.60
46085;DHT22;31823;47.032;8.310;2023-03-25T14:11:24;15.10;99.90
46085;DHT22;31823;47.032;8.310;2023-03-25T14:13:55;15.00;97.60
46085;DHT22;31823;47.032;8.310;2023-03-25T14:16:25;15.00;98.40
46085;DHT22;31823;47.032;8.310;2023-03-25T14:18:57;15.00;99.00
46085;DHT22;31823;47.032;8.310;2023-03-25T14:24:11;13.50;96.40
46085;DHT22;31823;47.032;8.310;2023-03-25T14:26:50;13.20;99.30
46085;DHT22;31823;47.032;8.310;2023-03-25T14:29:33;12.60;99.90
46085;DHT22;31823;47.032;8.310;2023-03-25T14:32:02;12.00;99.90
46085;DHT22;31823;47.032;8.310;2023-03-25T14:34:28;11.70;99.90
46085;DHT22;31823;47.032;8.310;2023-03-25T14:44:46;10.60;99.90
46085;DHT22;31823;47.032;8.310;2023-03-25T14:50:00;9.20;99.90
46085;DHT22;31823;47.032;8.310;2023-03-25T14:52:32;10.40;99.90
46085;DHT22;31823;47.032;8.310;2023-03-25T14:55:09;11.30;99.90
46085;DHT22;31823;47.032;8.310;2023-03-25T14:57:41;11.70;99.90
46085;DHT22;31823;47.032;8.310;2023-03-25T15:00:09;11.20;99.90
46085;DHT22;31823;47.032;8.310;2023-03-25T15:02:40;11.50;99.90
46085;DHT22;31823;47.032;8.310;2023-03-25T15:05:14;11.40;99.90
46085;DHT22;31823;47.032;8.310;2023-03-25T15:07:52;11.40;99.90
46085;DHT22;31823;47.032;8.310;2023-03-25T15:10:19;11.20;99.90
46085;DHT22;31823;47.032;8.310;2023-03-25T15:12:50;11.30;99.90
46085;DHT22;31823;47.032;8.310;2023-03-25T15:17:54;11.40;99.90
46085;DHT22;31823;47.032;8.310;2023-03-25T15:25:49;11.40;99.90
46085;DHT22;31823;47.032;8.310;2023-03-25T15:28:30;11.50;99.90
46085;DHT22;31823;47.032;8.310;2023-03-25T15:31:11;11.70;99.90
46085;DHT22;31823;47.032;8.310;2023-03-25T15:42:26;12.10;99.90
46085;DHT22;31823;47.032;8.310;2023-03-25T15:47:57;12.20;99.80
46085;DHT22;31823;47.032;8.310;2023-03-25T15:56:12;12.30;98.40
46085;DHT22;31823;47.032;8.310;2023-03-25T16:01:29;12.50;98.40
46085;DHT22;31823;47.032;8.310;2023-03-25T16:04:04;12.30;99.00
46085;DHT22;31823;47.032;8.310;2023-03-25T16:06:32;12.20;98.50
46085;DHT22;31823;47.032;8.310;2023-03-25T16:09:00;12.10;99.90
46085;DHT22;31823;47.032;8.310;2023-03-25T16:11:27;12.00;99.40
46085;DHT22;31823;47.032;8.310;2023-03-25T16:14:13;11.70;97.40
46085;DHT22;31823;47.032;8.310;2023-03-25T16:16:45;11.80;97.30
46085;DHT22;31823;47.032;8.310;2023-03-25T16:19:19;11.80;95.80
46085;DHT22;31823;47.032;8.310;2023-03-25T16:21:51;11.80;98.20
46085;DHT22;31823;47.032;8.310;2023-03-25T16:24:21;11.70;97.90
46085;DHT22;31823;47.032;8.310;2023-03-25T16:26:48;11.60;96.80
46085;DHT22;31823;47.032;8.310;2023-03-25T16:32:03;11.40;98.00
46085;DHT22;31823;47.032;8.310;2023-03-25T16:34:39;11.40;97.20
46085;DHT22;31823;47.032;8.310;2023-03-25T16:37:06;11.50;95.60
46085;DHT22;31823;47.032;8.310;2023-03-25T16:39:34;11.50;95.50
46085;DHT22;31823;47.032;8.310;2023-03-25T16:42:09;11.40;95.20
46085;DHT22;31823;47.032;8.310;2023-03-25T16:44:37;11.30;97.30
46085;DHT22;31823;47.032;8.310;2023-03-25T16:47:04;11.30;96.00
46085;DHT22;31823;47.032;8.310;2023-03-25T16:49:32;11.40;97.20
46085;DHT22;31823;47.032;8.310;2023-03-25T16:52:01;11.10;97.10
46085;DHT22;31823;47.032;8.310;2023-03-25T16:54:43;11.30;96.10
46085;DHT22;31823;47.032;8.310;2023-03-25T16:57:17;11.30;95.60
46085;DHT22;31823;47.032;8.310;2023-03-25T16:59:46;11.30;95.00
46085;DHT22;31823;47.032;8.310;2023-03-25T17:02:29;11.30;95.70
46085;DHT22;31823;47.032;8.310;2023-03-25T17:05:21;11.30;95.60
46085;DHT22;31823;47.032;8.310;2023-03-25T17:08:00;11.20;97.10
46085;DHT22;31823;47.032;8.310;2023-03-25T17:10:31;11.20;96.30
46085;DHT22;31823;47.032;8.310;2023-03-25T17:13:08;11.20;96.80
46085;DHT22;31823;47.032;8.310;2023-03-25T17:15:34;11.20;96.20
46085;DHT22;31823;47.032;8.310;2023-03-25T17:18:02;11.10;97.00
46085;DHT22;31823;47.032;8.310;2023-03-25T17:20:33;11.10;97.10
46085;DHT22;31823;47.032;8.310;2023-03-25T17:23:07;11.00;97.30
46085;DHT22;31823;47.032;8.310;2023-03-25T17:36:34;10.90;98.00
46085;DHT22;31823;47.032;8.310;2023-03-25T17:39:03;10.90;97.80
46085;DHT22;31823;47.032;8.310;2023-03-25T17:41:35;10.80;97.40
46085;DHT22;31823;47.032;8.310;2023-03-25T17:44:01;10.80;97.90
46085;DHT22;31823;47.032;8.310;2023-03-25T17:46:28;10.60;98.90
46085;DHT22;31823;47.032;8.310;2023-03-25T17:48:55;10.60;98.50
46085;DHT22;31823;47.032;8.310;2023-03-25T17:51:29;10.60;98.40
46085;DHT22;31823;47.032;8.310;2023-03-25T17:53:55;10.50;98.70
46085;DHT22;31823;47.032;8.310;2023-03-25T17:56:24;10.60;98.20
46085;DHT22;31823;47.032;8.310;2023-03-25T17:58:57;10.20;99.90
46085;DHT22;31823;47.032;8.310;2023-03-25T18:01:23;9.60;99.90
46085;DHT22;31823;47.032;8.310;2023-03-25T18:03:50;9.00;99.90
46085;DHT22;31823;47.032;8.310;2023-03-25T18:06:15;8.70;99.90
46085;DHT22;31823;47.032;8.310;2023-03-25T18:08:41;8.40;99.90
46085;DHT22;31823;47.032;8.310;2023-03-25T18:11:09;8.30;99.90
46085;DHT22;31823;47.032;8.310;2023-03-25T18:13:35;8.30;99.90
46085;DHT22;31823;47.032;8.310;2023-03-25T18:16:01;8.40;99.90
46085;DHT22;31823;47.032;8.310;2023-03-25T18:18:26;8.30;99.90
46085;DHT22;31823;47.032;8.310;2023-03-25T18:20:53;8.10;99.90
46085;DHT22;31823;47.032;8.310;2023-03-25T18:23:21;8.60;99.90
46085;DHT22;31823;47.032;8.310;2023-03-25T18:25:47;8.50;99.90
46085;DHT22;31823;47.032;8.310;2023-03-25T18:28:13;8.50;99.90
46085;DHT22;31823;47.032;8.310;2023-03-25T18:33:12;8.30;99.90
46085;DHT22;31823;47.032;8.310;2023-03-25T18:35:38;8.30;99.90
46085;DHT22;31823;47.032;8.310;2023-03-25T18:38:03;8.40;99.90
46085;DHT22;31823;47.032;8.310;2023-03-25T18:40:33;8.40;99.90
46085;DHT22;31823;47.032;8.310;2023-03-25T18:42:59;8.40;99.90
46085;DHT22;31823;47.032;8.310;2023-03-25T18:45:25;8.50;99.90
46085;DHT22;31823;47.032;8.310;2023-03-25T18:47:51;8.50;99.90
46085;DHT22;31823;47.032;8.310;2023-03-25T18:50:29;8.10;99.90
46085;DHT22;31823;47.032;8.310;2023-03-25T18:52:55;7.80;99.90
46085;DHT22;31823;47.032;8.310;2023-03-25T18:55:21;7.90;99.90
46085;DHT22;31823;47.032;8.310;2023-03-25T18:57:47;7.80;99.90
46085;DHT22;31823;47.032;8.310;2023-03-25T19:00:17;7.80;99.90
46085;DHT22;31823;47.032;8.310;2023-03-25T19:02:44;7.80;99.90